sensor_id;sensor_type;location;lat;lon;timestamp;temperature;humidity
39601;DHT22;25297;44.758;11.310;2023-05-10T00:01:58;19.10;96.10
39601;DHT22;25297;44.758;11.310;2023-05-10T00:04:24;19.10;96.20
39601;DHT22;25297;44.758;11.310;2023-05-10T00:06:53;19.00;96.30
39601;DHT22;25297;44.758;11.310;2023-05-10T00:09:19;19.10;96.40
39601;DHT22;25297;44.758;11.310;2023-05-10T00:11:44;19.10;96.50
39601;DHT22;25297;44.758;11.310;2023-05-10T00:14:11;19.10;96.60
39601;DHT22;25297;44.758;11.310;2023-05-10T00:16:36;19.00;96.70
39601;DHT22;25297;44.758;11.310;2023-05-10T00:19:02;19.10;96.80
39601;DHT22;25297;44.758;11.310;2023-05-10T00:21:28;19.10;96.90
39601;DHT22;25297;44.758;11.310;2023-05-10T00:23:54;19.00;97.00
39601;DHT22;25297;44.758;11.310;2023-05-10T00:26:20;19.00;97.20
39601;DHT22;25297;44.758;11.310;2023-05-10T00:28:45;19.00;97.50
39601;DHT22;25297;44.758;11.310;2023-05-10T00:31:11;19.00;97.60
39601;DHT22;25297;44.758;11.310;2023-05-10T00:33:37;19.00;97.80
39601;DHT22;25297;44.758;11.310;2023-05-10T00:36:02;19.00;98.10
39601;DHT22;25297;44.758;11.310;2023-05-10T00:38:28;19.00;98.00
39601;DHT22;25297;44.758;11.310;2023-05-10T00:40:54;18.90;98.10
39601;DHT22;25297;44.758;11.310;2023-05-10T00:43:20;18.90;98.20
39601;DHT22;25297;44.758;11.310;2023-05-10T00:45:45;18.90;98.50
39601;DHT22;25297;44.758;11.310;2023-05-10T00:48:12;18.80;99.00
39601;DHT22;25297;44.758;11.310;2023-05-10T00:50:38;18.80;99.20
39601;DHT22;25297;44.758;11.310;2023-05-10T00:53:06;18.70;99.90
39601;DHT22;25297;44.758;11.310;2023-05-10T00:55:32;18.70;99.90
39601;DHT22;25297;44.758;11.310;2023-05-10T00:57:58;18.70;99.90
39601;DHT22;25297;44.758;11.310;2023-05-10T01:00:24;18.70;99.90
39601;DHT22;25297;44.758;11.310;2023-05-10T01:02:52;18.70;99.90
39601;DHT22;25297;44.758;11.310;2023-05-10T01:05:18;18.70;99.90
39601;DHT22;25297;44.758;11.310;2023-05-10T01:07:44;18.60;99.60
39601;DHT22;25297;44.758;11.310;2023-05-10T01:10:10;18.60;99.70
39601;DHT22;25297;44.758;11.310;2023-05-10T01:12:38;18.60;99.90
39601;DHT22;25297;44.758;11.310;2023-05-10T01:15:09;18.50;99.90
39601;DHT22;25297;44.758;11.310;2023-05-10T01:17:38;18.50;99.90
39601;DHT22;25297;44.758;11.310;2023-05-10T01:20:05;18.50;99.90
39601;DHT22;25297;44.758;11.310;2023-05-10T01:33:33;18.60;99.90
39601;DHT22;25297;44.758;11.310;2023-05-10T01:39:01;18.60;99.90
39601;DHT22;25297;44.758;11.310;2023-05-10T01:41:34;18.70;99.90
39601;DHT22;25297;44.758;11.310;2023-05-10T01:47:00;18.70;99.90
39601;DHT22;25297;44.758;11.310;2023-05-10T01:49:30;18.70;99.90
39601;DHT22;25297;44.758;11.310;2023-05-10T01:52:03;18.70;99.90
39601;DHT22;25297;44.758;11.310;2023-05-10T01:54:33;18.70;99.90
39601;DHT22;25297;44.758;11.310;2023-05-10T01:57:06;18.80;99.90
39601;DHT22;25297;44.758;11.310;2023-05-10T01:59:36;18.80;99.90
39601;DHT22;25297;44.758;11.310;2023-05-10T02:02:08;18.80;99.90
39601;DHT22;25297;44.758;11.310;2023-05-10T02:04:39;18.80;99.90
39601;DHT22;25297;44.758;11.310;2023-05-10T02:07:06;18.80;99.90
39601;DHT22;25297;44.758;11.310;2023-05-10T02:09:34;18.90;99.90
39601;DHT22;25297;44.758;11.310;2023-05-10T02:12:02;18.80;99.90
39601;DHT22;25297;44.758;11.310;2023-05-10T02:14:30;18.80;99.90
39601;DHT22;25297;44.758;11.310;2023-05-10T02:16:58;18.80;99.90
39601;DHT22;25297;44.758;11.310;2023-05-10T02:19:25;18.80;99.90
39601;DHT22;25297;44.758;11.310;2023-05-10T02:21:53;18.80;99.90
39601;DHT22;25297;44.758;11.310;2023-05-10T02:24:20;18.80;99.80
39601;DHT22;25297;44.758;11.310;2023-05-10T02:26:47;18.80;99.70
39601;DHT22;25297;44.758;11.310;2023-05-10T02:29:15;18.80;99.90
39601;DHT22;25297;44.758;11.310;2023-05-10T02:31:41;18.80;99.90
39601;DHT22;25297;44.758;11.310;2023-05-10T02:34:10;18.70;99.90
39601;DHT22;25297;44.758;11.310;2023-05-10T02:36:37;18.70;99.80
39601;DHT22;25297;44.758;11.310;2023-05-10T02:39:04;18.70;99.80
39601;DHT22;25297;44.758;11.310;2023-05-10T02:41:35;18.70;99.90
39601;DHT22;25297;44.758;11.310;2023-05-10T02:44:02;18.60;99.90
39601;DHT22;25297;44.758;11.310;2023-05-10T02:46:29;18.60;99.80
39601;DHT22;25297;44.758;11.310;2023-05-10T02:48:55;18.50;99.90
39601;DHT22;25297;44.758;11.310;2023-05-10T02:51:24;18.50;99.80
39601;DHT22;25297;44.758;11.310;2023-05-10T02:53:51;18.50;99.80
39601;DHT22;25297;44.758;11.310;2023-05-10T02:56:30;18.40;99.70
39601;DHT22;25297;44.758;11.310;2023-05-10T02:58:57;18.40;99.80
39601;DHT22;25297;44.758;11.310;2023-05-10T03:01:23;18.40;99.90
39601;DHT22;25297;44.758;11.310;2023-05-10T03:03:48;18.30;99.90
39601;DHT22;25297;44.758;11.310;2023-05-10T03:06:14;18.30;99.90
39601;DHT22;25297;44.758;11.310;2023-05-10T03:08:42;18.30;99.90
39601;DHT22;25297;44.758;11.310;2023-05-10T03:16:35;18.10;99.90
39601;DHT22;25297;44.758;11.310;2023-05-10T03:21:49;18.10;99.90
39601;DHT22;25297;44.758;11.310;2023-05-10T03:24:16;18.10;99.90
39601;DHT22;25297;44.758;11.310;2023-05-10T03:26:45;18.00;99.90
39601;DHT22;25297;44.758;11.310;2023-05-10T03:29:12;18.00;99.90
39601;DHT22;25297;44.758;11.310;2023-05-10T03:31:38;18.00;99.90
39601;DHT22;25297;44.758;11.310;2023-05-10T03:34:04;18.00;99.90
39601;DHT22;25297;44.758;11.310;2023-05-10T03:36:30;18.00;99.90
39601;DHT22;25297;44.758;11.310;2023-05-10T03:38:55;17.90;99.90
39601;DHT22;25297;44.758;11.310;2023-05-10T03:41:21;17.90;99.90
39601;DHT22;25297;44.758;11.310;2023-05-10T03:43:47;17.90;99.90
39601;DHT22;25297;44.758;11.310;2023-05-10T03:46:12;17.90;99.90
39601;DHT22;25297;44.758;11.310;2023-05-10T03:48:38;17.90;99.90
39601;DHT22;25297;44.758;11.310;2023-05-10T03:51:03;17.90;99.90
39601;DHT22;25297;44.758;11.310;2023-05-10T03:53:29;17.90;99.90
39601;DHT22;25297;44.758;11.310;2023-05-10T03:55:55;18.00;99.90
39601;DHT22;25297;44.758;11.310;2023-05-10T03:58:20;18.00;99.90
39601;DHT22;25297;44.758;11.310;2023-05-10T04:00:47;18.00;99.90
39601;DHT22;25297;44.758;11.310;2023-05-10T04:03:13;18.10;99.90
39601;DHT22;25297;44.758;11.310;2023-05-10T04:05:38;18.10;99.90
39601;DHT22;25297;44.758;11.310;2023-05-10T04:08:05;18.10;99.90
39601;DHT22;25297;44.758;11.310;2023-05-10T04:10:31;18.10;99.90
39601;DHT22;25297;44.758;11.310;2023-05-10T04:12:56;18.20;99.90
39601;DHT22;25297;44.758;11.310;2023-05-10T04:15:22;18.20;99.90
39601;DHT22;25297;44.758;11.310;2023-05-10T04:17:48;18.20;99.90
39601;DHT22;25297;44.758;11.310;2023-05-10T04:20:14;18.20;99.90
39601;DHT22;25297;44.758;11.310;2023-05-10T04:22:39;18.20;99.90
39601;DHT22;25297;44.758;11.310;2023-05-10T04:25:06;18.20;99.90
39601;DHT22;25297;44.758;11.310;2023-05-10T04:27:32;18.10;99.90
39601;DHT22;25297;44.758;11.310;2023-05-10T04:29:58;18.10;99.90
39601;DHT22;25297;44.758;11.310;2023-05-10T04:32:23;18.10;99.90
39601;DHT22;25297;44.758;11.310;2023-05-10T04:34:49;18.10;99.90
39601;DHT22;25297;44.758;11.310;2023-05-10T04:37:16;18.10;99.90
39601;DHT22;25297;44.758;11.310;2023-05-10T04:39:42;18.10;99.90
39601;DHT22;25297;44.758;11.310;2023-05-10T04:42:08;18.10;99.90
39601;DHT22;25297;44.758;11.310;2023-05-10T04:44:34;18.10;99.90
39601;DHT22;25297;44.758;11.310;2023-05-10T04:47:01;18.10;99.90
39601;DHT22;25297;44.758;11.310;2023-05-10T04:49:27;18.10;99.90
39601;DHT22;25297;44.758;11.310;2023-05-10T04:51:53;18.00;99.90
39601;DHT22;25297;44.758;11.310;2023-05-10T04:54:19;18.00;99.90
39601;DHT22;25297;44.758;11.310;2023-05-10T04:56:45;18.00;99.90
39601;DHT22;25297;44.758;11.310;2023-05-10T04:59:10;17.90;99.90
39601;DHT22;25297;44.758;11.310;2023-05-10T05:01:36;17.90;99.90
39601;DHT22;25297;44.758;11.310;2023-05-10T05:04:02;17.80;99.90
39601;DHT22;25297;44.758;11.310;2023-05-10T05:06:27;17.80;99.90
39601;DHT22;25297;44.758;11.310;2023-05-10T05:08:53;17.70;99.90
39601;DHT22;25297;44.758;11.310;2023-05-10T05:11:19;17.70;99.90
39601;DHT22;25297;44.758;11.310;2023-05-10T05:13:44;17.60;99.90
39601;DHT22;25297;44.758;11.310;2023-05-10T05:16:10;17.60;99.90
39601;DHT22;25297;44.758;11.310;2023-05-10T05:18:36;17.60;99.90
39601;DHT22;25297;44.758;11.310;2023-05-10T05:21:02;17.60;99.90
39601;DHT22;25297;44.758;11.310;2023-05-10T05:23:28;17.60;99.90
39601;DHT22;25297;44.758;11.310;2023-05-10T05:25:54;17.60;99.90
39601;DHT22;25297;44.758;11.310;2023-05-10T05:28:22;17.70;99.90
39601;DHT22;25297;44.758;11.310;2023-05-10T05:30:48;17.60;99.90
39601;DHT22;25297;44.758;11.310;2023-05-10T05:33:14;17.70;99.90
39601;DHT22;25297;44.758;11.310;2023-05-10T05:35:41;17.70;99.90
39601;DHT22;25297;44.758;11.310;2023-05-10T05:38:08;17.70;99.90
39601;DHT22;25297;44.758;11.310;2023-05-10T05:40:33;17.70;99.90
39601;DHT22;25297;44.758;11.310;2023-05-10T05:42:59;17.70;99.90
39601;DHT22;25297;44.758;11.310;2023-05-10T05:45:25;17.80;99.90
39601;DHT22;25297;44.758;11.310;2023-05-10T05:47:50;17.80;99.90
39601;DHT22;25297;44.758;11.310;2023-05-10T05:50:16;17.80;99.90
39601;DHT22;25297;44.758;11.310;2023-05-10T05:52:42;17.80;99.90
39601;DHT22;25297;44.758;11.310;2023-05-10T05:55:07;17.80;99.90
39601;DHT22;25297;44.758;11.310;2023-05-10T05:57:33;17.80;99.90
39601;DHT22;25297;44.758;11.310;2023-05-10T05:59:59;17.90;99.90
39601;DHT22;25297;44.758;11.310;2023-05-10T06:02:24;17.80;99.90
39601;DHT22;25297;44.758;11.310;2023-05-10T06:04:50;17.90;99.90
39601;DHT22;25297;44.758;11.310;2023-05-10T06:07:16;17.90;99.90
39601;DHT22;25297;44.758;11.310;2023-05-10T06:09:41;17.90;99.90
39601;DHT22;25297;44.758;11.310;2023-05-10T06:12:07;17.90;99.90
39601;DHT22;25297;44.758;11.310;2023-05-10T06:14:33;18.00;99.90
39601;DHT22;25297;44.758;11.310;2023-05-10T06:16:58;17.90;99.90
39601;DHT22;25297;44.758;11.310;2023-05-10T06:19:25;18.00;99.90
39601;DHT22;25297;44.758;11.310;2023-05-10T06:21:51;18.00;99.90
39601;DHT22;25297;44.758;11.310;2023-05-10T06:24:17;18.00;99.90
39601;DHT22;25297;44.758;11.310;2023-05-10T06:26:43;18.00;99.90
39601;DHT22;25297;44.758;11.310;2023-05-10T06:29:08;18.00;99.90
39601;DHT22;25297;44.758;11.310;2023-05-10T06:31:34;18.00;99.90
39601;DHT22;25297;44.758;11.310;2023-05-10T06:33:59;18.00;99.90
39601;DHT22;25297;44.758;11.310;2023-05-10T06:36:25;18.00;99.90
39601;DHT22;25297;44.758;11.310;2023-05-10T06:38:52;18.00;99.90
39601;DHT22;25297;44.758;11.310;2023-05-10T06:41:18;18.00;99.90
39601;DHT22;25297;44.758;11.310;2023-05-10T06:43:43;18.00;99.90
39601;DHT22;25297;44.758;11.310;2023-05-10T06:46:09;18.00;99.90
39601;DHT22;25297;44.758;11.310;2023-05-10T06:48:35;18.00;99.90
39601;DHT22;25297;44.758;11.310;2023-05-10T06:51:00;18.00;99.90
39601;DHT22;25297;44.758;11.310;2023-05-10T06:53:26;18.00;99.90
39601;DHT22;25297;44.758;11.310;2023-05-10T06:55:52;18.00;99.90
39601;DHT22;25297;44.758;11.310;2023-05-10T06:58:18;18.00;99.90
39601;DHT22;25297;44.758;11.310;2023-05-10T07:00:44;18.00;99.90
39601;DHT22;25297;44.758;11.310;2023-05-10T07:03:10;18.00;99.90
39601;DHT22;25297;44.758;11.310;2023-05-10T07:05:36;18.00;99.90
39601;DHT22;25297;44.758;11.310;2023-05-10T07:08:02;18.00;99.90
39601;DHT22;25297;44.758;11.310;2023-05-10T07:10:27;18.00;99.90
39601;DHT22;25297;44.758;11.310;2023-05-10T07:12:53;17.90;99.90
39601;DHT22;25297;44.758;11.310;2023-05-10T07:15:19;17.90;99.90
39601;DHT22;25297;44.758;11.310;2023-05-10T07:17:45;17.90;99.90
39601;DHT22;25297;44.758;11.310;2023-05-10T07:20:11;17.90;99.90
39601;DHT22;25297;44.758;11.310;2023-05-10T07:22:37;17.90;99.90
39601;DHT22;25297;44.758;11.310;2023-05-10T07:25:02;17.80;99.90
39601;DHT22;25297;44.758;11.310;2023-05-10T07:27:28;17.80;99.90
39601;DHT22;25297;44.758;11.310;2023-05-10T07:29:54;17.80;99.90
39601;DHT22;25297;44.758;11.310;2023-05-10T07:32:20;17.80;99.90
39601;DHT22;25297;44.758;11.310;2023-05-10T07:34:46;17.80;99.90
39601;DHT22;25297;44.758;11.310;2023-05-10T07:37:12;17.80;99.90
39601;DHT22;25297;44.758;11.310;2023-05-10T07:39:38;17.80;99.90
39601;DHT22;25297;44.758;11.310;2023-05-10T07:42:03;17.80;99.90
39601;DHT22;25297;44.758;11.310;2023-05-10T07:44:29;17.70;99.90
39601;DHT22;25297;44.758;11.310;2023-05-10T07:46:55;17.70;99.90
39601;DHT22;25297;44.758;11.310;2023-05-10T07:49:21;17.70;99.90
39601;DHT22;25297;44.758;11.310;2023-05-10T07:51:46;17.70;99.90
39601;DHT22;25297;44.758;11.310;2023-05-10T07:54:13;17.60;99.90
39601;DHT22;25297;44.758;11.310;2023-05-10T07:56:39;17.70;99.90
39601;DHT22;25297;44.758;11.310;2023-05-10T07:59:05;17.70;99.90
39601;DHT22;25297;44.758;11.310;2023-05-10T08:01:33;17.70;99.90
39601;DHT22;25297;44.758;11.310;2023-05-10T08:03:59;17.70;99.90
39601;DHT22;25297;44.758;11.310;2023-05-10T08:06:25;17.50;99.90
39601;DHT22;25297;44.758;11.310;2023-05-10T08:08:55;17.70;99.90
39601;DHT22;25297;44.758;11.310;2023-05-10T08:11:21;17.60;99.90
39601;DHT22;25297;44.758;11.310;2023-05-10T08:13:49;17.60;99.90
39601;DHT22;25297;44.758;11.310;2023-05-10T08:16:15;17.60;99.90
39601;DHT22;25297;44.758;11.310;2023-05-10T08:18:45;17.60;99.90
39601;DHT22;25297;44.758;11.310;2023-05-10T08:21:12;17.60;99.90
39601;DHT22;25297;44.758;11.310;2023-05-10T08:23:38;17.60;99.90
39601;DHT22;25297;44.758;11.310;2023-05-10T08:26:03;17.60;99.90
39601;DHT22;25297;44.758;11.310;2023-05-10T08:28:29;17.60;99.90
39601;DHT22;25297;44.758;11.310;2023-05-10T08:30:55;17.60;99.90
39601;DHT22;25297;44.758;11.310;2023-05-10T08:33:21;17.60;99.90
39601;DHT22;25297;44.758;11.310;2023-05-10T08:35:47;17.60;99.90
39601;DHT22;25297;44.758;11.310;2023-05-10T08:38:12;17.60;99.90
39601;DHT22;25297;44.758;11.310;2023-05-10T08:40:43;17.60;99.90
39601;DHT22;25297;44.758;11.310;2023-05-10T08:43:11;17.60;99.90
39601;DHT22;25297;44.758;11.310;2023-05-10T08:45:44;17.60;99.90
39601;DHT22;25297;44.758;11.310;2023-05-10T08:48:14;17.60;99.90
39601;DHT22;25297;44.758;11.310;2023-05-10T08:50:41;17.60;99.90
39601;DHT22;25297;44.758;11.310;2023-05-10T08:53:12;17.60;99.90
39601;DHT22;25297;44.758;11.310;2023-05-10T08:55:39;17.60;99.90
39601;DHT22;25297;44.758;11.310;2023-05-10T08:58:05;17.60;99.90
39601;DHT22;25297;44.758;11.310;2023-05-10T09:00:32;17.60;99.90
39601;DHT22;25297;44.758;11.310;2023-05-10T09:02:59;17.60;99.90
39601;DHT22;25297;44.758;11.310;2023-05-10T09:05:25;17.60;99.90
39601;DHT22;25297;44.758;11.310;2023-05-10T09:07:50;17.50;99.90
39601;DHT22;25297;44.758;11.310;2023-05-10T09:10:16;17.50;99.90
39601;DHT22;25297;44.758;11.310;2023-05-10T09:12:43;17.50;99.90
39601;DHT22;25297;44.758;11.310;2023-05-10T09:15:10;17.60;99.90
39601;DHT22;25297;44.758;11.310;2023-05-10T09:17:38;17.60;99.90
39601;DHT22;25297;44.758;11.310;2023-05-10T09:20:04;17.60;99.90
39601;DHT22;25297;44.758;11.310;2023-05-10T09:22:31;17.50;99.90
39601;DHT22;25297;44.758;11.310;2023-05-10T09:25:06;17.60;99.90
39601;DHT22;25297;44.758;11.310;2023-05-10T09:27:33;17.50;99.90
39601;DHT22;25297;44.758;11.310;2023-05-10T09:29:58;17.50;99.90
39601;DHT22;25297;44.758;11.310;2023-05-10T09:32:37;17.50;99.90
39601;DHT22;25297;44.758;11.310;2023-05-10T09:35:14;17.50;99.90
39601;DHT22;25297;44.758;11.310;2023-05-10T09:37:45;17.50;99.90
39601;DHT22;25297;44.758;11.310;2023-05-10T09:40:16;17.50;99.90
39601;DHT22;25297;44.758;11.310;2023-05-10T09:43:10;17.50;99.90
39601;DHT22;25297;44.758;11.310;2023-05-10T09:45:36;17.50;99.90
39601;DHT22;25297;44.758;11.310;2023-05-10T09:48:03;17.50;99.90
39601;DHT22;25297;44.758;11.310;2023-05-10T09:50:32;17.50;99.90
39601;DHT22;25297;44.758;11.310;2023-05-10T09:52:59;17.50;99.90
39601;DHT22;25297;44.758;11.310;2023-05-10T09:55:48;17.50;99.90
39601;DHT22;25297;44.758;11.310;2023-05-10T09:58:14;17.60;99.90
39601;DHT22;25297;44.758;11.310;2023-05-10T10:00:42;17.60;99.90
39601;DHT22;25297;44.758;11.310;2023-05-10T10:03:19;17.60;99.90
39601;DHT22;25297;44.758;11.310;2023-05-10T10:05:46;17.50;99.90
39601;DHT22;25297;44.758;11.310;2023-05-10T10:08:13;17.50;99.90
39601;DHT22;25297;44.758;11.310;2023-05-10T10:10:39;17.50;99.90
39601;DHT22;25297;44.758;11.310;2023-05-10T10:13:09;17.50;99.90
39601;DHT22;25297;44.758;11.310;2023-05-10T10:15:35;17.50;99.90
39601;DHT22;25297;44.758;11.310;2023-05-10T10:18:01;17.50;99.90
39601;DHT22;25297;44.758;11.310;2023-05-10T10:20:29;17.50;99.90
39601;DHT22;25297;44.758;11.310;2023-05-10T10:22:54;17.50;99.90
39601;DHT22;25297;44.758;11.310;2023-05-10T10:25:21;17.50;99.90
39601;DHT22;25297;44.758;11.310;2023-05-10T10:35:32;17.50;99.90
39601;DHT22;25297;44.758;11.310;2023-05-10T10:37:59;17.50;99.90
39601;DHT22;25297;44.758;11.310;2023-05-10T10:40:29;17.40;99.90
39601;DHT22;25297;44.758;11.310;2023-05-10T10:42:56;17.40;99.90
39601;DHT22;25297;44.758;11.310;2023-05-10T10:45:23;17.40;99.90
39601;DHT22;25297;44.758;11.310;2023-05-10T10:48:21;17.50;99.90
39601;DHT22;25297;44.758;11.310;2023-05-10T10:50:45;17.50;99.90
39601;DHT22;25297;44.758;11.310;2023-05-10T10:53:14;17.40;99.90
39601;DHT22;25297;44.758;11.310;2023-05-10T10:55:46;17.50;99.90
39601;DHT22;25297;44.758;11.310;2023-05-10T10:58:31;17.40;99.90
39601;DHT22;25297;44.758;11.310;2023-05-10T11:01:16;17.40;99.90
39601;DHT22;25297;44.758;11.310;2023-05-10T11:06:40;17.40;99.90
39601;DHT22;25297;44.758;11.310;2023-05-10T11:09:09;17.40;99.90
39601;DHT22;25297;44.758;11.310;2023-05-10T11:11:36;17.40;99.90
39601;DHT22;25297;44.758;11.310;2023-05-10T11:14:06;17.40;99.90
39601;DHT22;25297;44.758;11.310;2023-05-10T11:16:43;17.40;99.90
39601;DHT22;25297;44.758;11.310;2023-05-10T11:19:11;17.40;99.90
39601;DHT22;25297;44.758;11.310;2023-05-10T11:24:30;17.40;99.90
39601;DHT22;25297;44.758;11.310;2023-05-10T11:26:56;17.40;99.90
39601;DHT22;25297;44.758;11.310;2023-05-10T11:29:22;17.40;99.90
39601;DHT22;25297;44.758;11.310;2023-05-10T11:31:49;17.40;99.90
39601;DHT22;25297;44.758;11.310;2023-05-10T11:34:29;17.40;99.90
39601;DHT22;25297;44.758;11.310;2023-05-10T11:37:01;17.40;99.90
39601;DHT22;25297;44.758;11.310;2023-05-10T11:39:31;17.40;99.90
39601;DHT22;25297;44.758;11.310;2023-05-10T11:41:58;17.40;99.90
39601;DHT22;25297;44.758;11.310;2023-05-10T11:44:33;17.50;99.90
39601;DHT22;25297;44.758;11.310;2023-05-10T11:47:02;17.50;99.90
39601;DHT22;25297;44.758;11.310;2023-05-10T11:49:28;17.40;99.90
39601;DHT22;25297;44.758;11.310;2023-05-10T11:52:06;17.40;99.90
39601;DHT22;25297;44.758;11.310;2023-05-10T11:54:32;17.40;99.90
39601;DHT22;25297;44.758;11.310;2023-05-10T11:57:00;17.40;99.90
39601;DHT22;25297;44.758;11.310;2023-05-10T11:59:25;17.40;99.90
39601;DHT22;25297;44.758;11.310;2023-05-10T12:01:51;17.40;99.90
39601;DHT22;25297;44.758;11.310;2023-05-10T12:04:17;17.50;99.90
39601;DHT22;25297;44.758;11.310;2023-05-10T12:06:43;17.50;99.90
39601;DHT22;25297;44.758;11.310;2023-05-10T12:09:09;17.40;99.90
39601;DHT22;25297;44.758;11.310;2023-05-10T12:11:39;17.50;99.90
39601;DHT22;25297;44.758;11.310;2023-05-10T12:14:05;17.50;99.90
39601;DHT22;25297;44.758;11.310;2023-05-10T12:16:32;17.50;99.90
39601;DHT22;25297;44.758;11.310;2023-05-10T12:18:59;17.50;99.90
39601;DHT22;25297;44.758;11.310;2023-05-10T12:21:26;17.50;99.90
39601;DHT22;25297;44.758;11.310;2023-05-10T12:23:54;17.50;99.90
39601;DHT22;25297;44.758;11.310;2023-05-10T12:26:24;17.50;99.90
39601;DHT22;25297;44.758;11.310;2023-05-10T12:28:54;17.50;99.90
39601;DHT22;25297;44.758;11.310;2023-05-10T12:31:20;17.50;99.90
39601;DHT22;25297;44.758;11.310;2023-05-10T12:33:46;17.50;99.90
39601;DHT22;25297;44.758;11.310;2023-05-10T12:36:15;17.50;99.90
39601;DHT22;25297;44.758;11.310;2023-05-10T12:38:42;17.50;99.90
39601;DHT22;25297;44.758;11.310;2023-05-10T12:41:10;17.40;99.90
39601;DHT22;25297;44.758;11.310;2023-05-10T12:43:37;17.50;99.90
39601;DHT22;25297;44.758;11.310;2023-05-10T12:48:31;17.50;99.90
39601;DHT22;25297;44.758;11.310;2023-05-10T12:50:59;17.50;99.90
39601;DHT22;25297;44.758;11.310;2023-05-10T12:53:25;17.50;99.90
39601;DHT22;25297;44.758;11.310;2023-05-10T12:55:51;17.50;99.90
39601;DHT22;25297;44.758;11.310;2023-05-10T12:58:16;17.40;99.90
39601;DHT22;25297;44.758;11.310;2023-05-10T13:00:42;17.40;99.90
39601;DHT22;25297;44.758;11.310;2023-05-10T13:03:09;17.40;99.90
39601;DHT22;25297;44.758;11.310;2023-05-10T13:05:35;17.40;99.90
39601;DHT22;25297;44.758;11.310;2023-05-10T13:08:01;17.40;99.90
39601;DHT22;25297;44.758;11.310;2023-05-10T13:10:29;17.40;99.90
39601;DHT22;25297;44.758;11.310;2023-05-10T13:12:56;17.40;99.90
39601;DHT22;25297;44.758;11.310;2023-05-10T13:15:22;17.40;99.90
39601;DHT22;25297;44.758;11.310;2023-05-10T13:17:48;17.40;99.90
39601;DHT22;25297;44.758;11.310;2023-05-10T13:20:13;17.40;99.90
39601;DHT22;25297;44.758;11.310;2023-05-10T13:22:40;17.40;99.90
39601;DHT22;25297;44.758;11.310;2023-05-10T13:25:06;17.40;99.90
39601;DHT22;25297;44.758;11.310;2023-05-10T13:27:32;17.50;99.90
39601;DHT22;25297;44.758;11.310;2023-05-10T13:29:58;17.50;99.90
39601;DHT22;25297;44.758;11.310;2023-05-10T13:32:25;17.50;99.90
39601;DHT22;25297;44.758;11.310;2023-05-10T13:34:51;17.50;99.90
39601;DHT22;25297;44.758;11.310;2023-05-10T13:37:17;17.50;99.90
39601;DHT22;25297;44.758;11.310;2023-05-10T13:39:42;17.50;99.90
39601;DHT22;25297;44.758;11.310;2023-05-10T13:42:08;17.50;99.90
39601;DHT22;25297;44.758;11.310;2023-05-10T13:44:34;17.50;99.90
39601;DHT22;25297;44.758;11.310;2023-05-10T13:47:00;17.60;99.90
39601;DHT22;25297;44.758;11.310;2023-05-10T13:49:25;17.50;99.90
39601;DHT22;25297;44.758;11.310;2023-05-10T13:51:51;17.60;99.90
39601;DHT22;25297;44.758;11.310;2023-05-10T13:54:17;17.60;99.90
39601;DHT22;25297;44.758;11.310;2023-05-10T13:56:45;17.60;99.90
39601;DHT22;25297;44.758;11.310;2023-05-10T13:59:13;17.60;99.90
39601;DHT22;25297;44.758;11.310;2023-05-10T14:01:40;17.60;99.90
39601;DHT22;25297;44.758;11.310;2023-05-10T14:04:05;17.60;99.90
39601;DHT22;25297;44.758;11.310;2023-05-10T14:06:32;17.60;99.90
39601;DHT22;25297;44.758;11.310;2023-05-10T14:08:59;17.60;99.90
39601;DHT22;25297;44.758;11.310;2023-05-10T14:11:24;17.60;99.90
39601;DHT22;25297;44.758;11.310;2023-05-10T14:13:50;17.70;99.90
39601;DHT22;25297;44.758;11.310;2023-05-10T14:16:16;17.70;99.90
39601;DHT22;25297;44.758;11.310;2023-05-10T14:18:41;17.70;99.90
39601;DHT22;25297;44.758;11.310;2023-05-10T14:21:07;17.70;99.90
39601;DHT22;25297;44.758;11.310;2023-05-10T14:23:32;17.70;99.90
39601;DHT22;25297;44.758;11.310;2023-05-10T14:25:58;17.70;99.90
39601;DHT22;25297;44.758;11.310;2023-05-10T14:28:24;17.70;99.90
39601;DHT22;25297;44.758;11.310;2023-05-10T14:30:50;17.70;99.90
39601;DHT22;25297;44.758;11.310;2023-05-10T14:33:16;17.70;99.90
39601;DHT22;25297;44.758;11.310;2023-05-10T14:35:42;17.70;99.90
39601;DHT22;25297;44.758;11.310;2023-05-10T14:38:08;17.70;99.90
39601;DHT22;25297;44.758;11.310;2023-05-10T14:40:34;17.80;99.90
39601;DHT22;25297;44.758;11.310;2023-05-10T14:43:00;17.80;99.90
39601;DHT22;25297;44.758;11.310;2023-05-10T14:45:25;17.80;99.90
39601;DHT22;25297;44.758;11.310;2023-05-10T14:47:51;17.80;99.90
39601;DHT22;25297;44.758;11.310;2023-05-10T14:50:17;17.80;99.90
39601;DHT22;25297;44.758;11.310;2023-05-10T14:52:43;17.80;99.90
39601;DHT22;25297;44.758;11.310;2023-05-10T14:55:10;17.80;99.90
39601;DHT22;25297;44.758;11.310;2023-05-10T14:57:35;17.80;99.90
39601;DHT22;25297;44.758;11.310;2023-05-10T15:00:02;17.80;99.90
39601;DHT22;25297;44.758;11.310;2023-05-10T15:02:30;17.80;99.90
39601;DHT22;25297;44.758;11.310;2023-05-10T15:04:55;17.80;99.90
39601;DHT22;25297;44.758;11.310;2023-05-10T15:07:22;17.80;99.90
39601;DHT22;25297;44.758;11.310;2023-05-10T15:09:48;17.80;99.90
39601;DHT22;25297;44.758;11.310;2023-05-10T15:12:14;17.80;99.90
39601;DHT22;25297;44.758;11.310;2023-05-10T15:14:39;17.80;99.90
39601;DHT22;25297;44.758;11.310;2023-05-10T15:17:06;17.80;99.90
39601;DHT22;25297;44.758;11.310;2023-05-10T15:19:31;17.80;99.90
39601;DHT22;25297;44.758;11.310;2023-05-10T15:21:58;17.80;99.90
39601;DHT22;25297;44.758;11.310;2023-05-10T15:24:24;17.80;99.90
39601;DHT22;25297;44.758;11.310;2023-05-10T15:26:50;17.80;99.90
39601;DHT22;25297;44.758;11.310;2023-05-10T15:29:16;17.80;99.90
39601;DHT22;25297;44.758;11.310;2023-05-10T15:31:49;17.80;99.90
39601;DHT22;25297;44.758;11.310;2023-05-10T15:34:15;17.80;99.90
39601;DHT22;25297;44.758;11.310;2023-05-10T15:36:41;17.80;99.90
39601;DHT22;25297;44.758;11.310;2023-05-10T15:39:06;17.80;99.90
39601;DHT22;25297;44.758;11.310;2023-05-10T15:41:32;17.80;99.90
39601;DHT22;25297;44.758;11.310;2023-05-10T15:43:58;17.80;99.90
39601;DHT22;25297;44.758;11.310;2023-05-10T15:46:25;17.80;99.90
39601;DHT22;25297;44.758;11.310;2023-05-10T15:48:51;17.80;99.90
39601;DHT22;25297;44.758;11.310;2023-05-10T15:51:17;17.80;99.90
39601;DHT22;25297;44.758;11.310;2023-05-10T15:53:44;17.80;99.90
39601;DHT22;25297;44.758;11.310;2023-05-10T15:56:10;17.80;99.90